sensor_id;sensor_type;location;lat;lon;timestamp;P1;durP1;ratioP1;P2;durP2;ratioP2
76548;SDS011;65391;52.068;4.542;2022-12-29T00:01:23;3.1;;;1.5;;
76548;SDS011;65391;52.068;4.542;2022-12-29T00:03:48;3.7;;;1.2;;
76548;SDS011;65391;52.068;4.542;2022-12-29T00:06:13;3.7;;;1.2;;
76548;SDS011;65391;52.068;4.542;2022-12-29T00:08:38;3.7;;;1.2;;
76548;SDS011;65391;52.068;4.542;2022-12-29T00:11:04;3.7;;;1.2;;
76548;SDS011;65391;52.068;4.542;2022-12-29T00:13:28;2;;;1;;
76548;SDS011;65391;52.068;4.542;2022-12-29T00:15:54;2;;;1;;
76548;SDS011;65391;52.068;4.542;2022-12-29T00:18:18;2;;;1;;
76548;SDS011;65391;52.068;4.542;2022-12-29T00:20:43;2;;;1;;
76548;SDS011;65391;52.068;4.542;2022-12-29T00:23:09;4.8;;;1.4;;
76548;SDS011;65391;52.068;4.542;2022-12-29T00:25:35;4.8;;;1.4;;
76548;SDS011;65391;52.068;4.542;2022-12-29T00:27:59;4.8;;;1.4;;
76548;SDS011;65391;52.068;4.542;2022-12-29T00:30:24;4.8;;;1.4;;
76548;SDS011;65391;52.068;4.542;2022-12-29T00:32:48;2.9;;;1;;
76548;SDS011;65391;52.068;4.542;2022-12-29T00:35:18;2.9;;;1;;
76548;SDS011;65391;52.068;4.542;2022-12-29T00:37:40;2.9;;;1;;
76548;SDS011;65391;52.068;4.542;2022-12-29T00:40:04;2.9;;;1;;
76548;SDS011;65391;52.068;4.542;2022-12-29T00:42:28;2.3;;;1;;
76548;SDS011;65391;52.068;4.542;2022-12-29T00:44:53;2.3;;;1;;
76548;SDS011;65391;52.068;4.542;2022-12-29T00:47:18;2.3;;;1;;
76548;SDS011;65391;52.068;4.542;2022-12-29T00:49:43;2.3;;;1;;
76548;SDS011;65391;52.068;4.542;2022-12-29T00:52:10;2.6;;;0.9;;
76548;SDS011;65391;52.068;4.542;2022-12-29T00:54:34;2.6;;;0.9;;
76548;SDS011;65391;52.068;4.542;2022-12-29T00:56:59;2.6;;;0.9;;
76548;SDS011;65391;52.068;4.542;2022-12-29T00:59:24;2.6;;;0.9;;
76548;SDS011;65391;52.068;4.542;2022-12-29T01:01:49;4.1;;;0.9;;
76548;SDS011;65391;52.068;4.542;2022-12-29T01:04:14;4.1;;;0.9;;
76548;SDS011;65391;52.068;4.542;2022-12-29T01:06:39;4.1;;;0.9;;
76548;SDS011;65391;52.068;4.542;2022-12-29T01:09:04;4.1;;;0.9;;
76548;SDS011;65391;52.068;4.542;2022-12-29T01:11:28;4.1;;;0.9;;
76548;SDS011;65391;52.068;4.542;2022-12-29T01:13:54;2.1;;;0.7;;
76548;SDS011;65391;52.068;4.542;2022-12-29T01:16:19;2.1;;;0.7;;
76548;SDS011;65391;52.068;4.542;2022-12-29T01:18:44;2.1;;;0.7;;
76548;SDS011;65391;52.068;4.542;2022-12-29T01:21:09;2.1;;;0.7;;
76548;SDS011;65391;52.068;4.542;2022-12-29T01:23:34;3.5;;;0.6;;
76548;SDS011;65391;52.068;4.542;2022-12-29T01:26:08;3.5;;;0.6;;
76548;SDS011;65391;52.068;4.542;2022-12-29T01:28:24;3.5;;;0.6;;
76548;SDS011;65391;52.068;4.542;2022-12-29T01:30:49;3.5;;;0.6;;
76548;SDS011;65391;52.068;4.542;2022-12-29T01:33:14;5;;;0.7;;
76548;SDS011;65391;52.068;4.542;2022-12-29T01:35:39;5;;;0.7;;
76548;SDS011;65391;52.068;4.542;2022-12-29T01:38:04;5;;;0.7;;
76548;SDS011;65391;52.068;4.542;2022-12-29T01:40:29;5;;;0.7;;
76548;SDS011;65391;52.068;4.542;2022-12-29T01:42:54;2.5;;;0.7;;
76548;SDS011;65391;52.068;4.542;2022-12-29T01:45:19;2.5;;;0.7;;
76548;SDS011;65391;52.068;4.542;2022-12-29T01:47:44;2.5;;;0.7;;
76548;SDS011;65391;52.068;4.542;2022-12-29T01:50:10;2.5;;;0.7;;
76548;SDS011;65391;52.068;4.542;2022-12-29T01:52:35;1.8;;;0.5;;
76548;SDS011;65391;52.068;4.542;2022-12-29T01:54:59;1.8;;;0.5;;
76548;SDS011;65391;52.068;4.542;2022-12-29T01:57:25;1.8;;;0.5;;
76548;SDS011;65391;52.068;4.542;2022-12-29T01:59:50;1.8;;;0.5;;
76548;SDS011;65391;52.068;4.542;2022-12-29T02:02:14;2;;;0.6;;
76548;SDS011;65391;52.068;4.542;2022-12-29T02:04:40;2;;;0.6;;
76548;SDS011;65391;52.068;4.542;2022-12-29T02:07:05;2;;;0.6;;
76548;SDS011;65391;52.068;4.542;2022-12-29T02:09:29;2;;;0.6;;
76548;SDS011;65391;52.068;4.542;2022-12-29T02:11:54;8.1;;;1;;
76548;SDS011;65391;52.068;4.542;2022-12-29T02:14:19;8.1;;;1;;
76548;SDS011;65391;52.068;4.542;2022-12-29T02:16:53;8.1;;;1;;
76548;SDS011;65391;52.068;4.542;2022-12-29T02:19:57;8.1;;;1;;
76548;SDS011;65391;52.068;4.542;2022-12-29T02:21:42;8.1;;;1;;
76548;SDS011;65391;52.068;4.542;2022-12-29T02:24:09;9.8;;;1.4;;
76548;SDS011;65391;52.068;4.542;2022-12-29T02:26:29;9.8;;;1.4;;
76548;SDS011;65391;52.068;4.542;2022-12-29T02:28:58;9.8;;;1.4;;
76548;SDS011;65391;52.068;4.542;2022-12-29T02:31:16;9.8;;;1.4;;
76548;SDS011;65391;52.068;4.542;2022-12-29T02:33:48;5.1;;;0.7;;
76548;SDS011;65391;52.068;4.542;2022-12-29T02:36:07;5.1;;;0.7;;
76548;SDS011;65391;52.068;4.542;2022-12-29T02:38:38;5.1;;;0.7;;
76548;SDS011;65391;52.068;4.542;2022-12-29T02:40:56;5.1;;;0.7;;
76548;SDS011;65391;52.068;4.542;2022-12-29T02:43:22;5.8;;;0.5;;
76548;SDS011;65391;52.068;4.542;2022-12-29T02:45:47;5.8;;;0.5;;
76548;SDS011;65391;52.068;4.542;2022-12-29T02:48:10;5.8;;;0.5;;
76548;SDS011;65391;52.068;4.542;2022-12-29T02:50:36;5.8;;;0.5;;
76548;SDS011;65391;52.068;4.542;2022-12-29T02:53:00;3.2;;;0.8;;
76548;SDS011;65391;52.068;4.542;2022-12-29T02:55:24;3.2;;;0.8;;
76548;SDS011;65391;52.068;4.542;2022-12-29T02:57:49;3.2;;;0.8;;
76548;SDS011;65391;52.068;4.542;2022-12-29T03:00:15;3.2;;;0.8;;
76548;SDS011;65391;52.068;4.542;2022-12-29T03:02:48;9.1;;;1.6;;
76548;SDS011;65391;52.068;4.542;2022-12-29T03:05:10;9.1;;;1.6;;
76548;SDS011;65391;52.068;4.542;2022-12-29T03:07:31;9.1;;;1.6;;
76548;SDS011;65391;52.068;4.542;2022-12-29T03:09:57;9.1;;;1.6;;
76548;SDS011;65391;52.068;4.542;2022-12-29T03:12:24;7.8;;;1.1;;
76548;SDS011;65391;52.068;4.542;2022-12-29T03:14:49;7.8;;;1.1;;
76548;SDS011;65391;52.068;4.542;2022-12-29T03:17:18;7.8;;;1.1;;
76548;SDS011;65391;52.068;4.542;2022-12-29T03:19:35;7.8;;;1.1;;
76548;SDS011;65391;52.068;4.542;2022-12-29T03:22:00;11;;;1.7;;
76548;SDS011;65391;52.068;4.542;2022-12-29T03:24:25;11;;;1.7;;
76548;SDS011;65391;52.068;4.542;2022-12-29T03:26:49;11;;;1.7;;
76548;SDS011;65391;52.068;4.542;2022-12-29T03:29:14;11;;;1.7;;
76548;SDS011;65391;52.068;4.542;2022-12-29T03:31:39;11;;;1.7;;
76548;SDS011;65391;52.068;4.542;2022-12-29T03:34:04;7.1;;;1.2;;
76548;SDS011;65391;52.068;4.542;2022-12-29T03:36:32;7.1;;;1.2;;
76548;SDS011;65391;52.068;4.542;2022-12-29T03:38:57;7.1;;;1.2;;
76548;SDS011;65391;52.068;4.542;2022-12-29T03:41:22;7.1;;;1.2;;
76548;SDS011;65391;52.068;4.542;2022-12-29T03:43:44;9.8;;;1.4;;
76548;SDS011;65391;52.068;4.542;2022-12-29T03:46:09;9.8;;;1.4;;
76548;SDS011;65391;52.068;4.542;2022-12-29T03:48:34;9.8;;;1.4;;
76548;SDS011;65391;52.068;4.542;2022-12-29T03:50:59;9.8;;;1.4;;
76548;SDS011;65391;52.068;4.542;2022-12-29T03:53:24;6.4;;;1.9;;
76548;SDS011;65391;52.068;4.542;2022-12-29T03:55:49;6.4;;;1.9;;
76548;SDS011;65391;52.068;4.542;2022-12-29T03:58:14;6.4;;;1.9;;
76548;SDS011;65391;52.068;4.542;2022-12-29T04:00:39;6.4;;;1.9;;
76548;SDS011;65391;52.068;4.542;2022-12-29T04:03:04;11.4;;;1.4;;
76548;SDS011;65391;52.068;4.542;2022-12-29T04:05:29;11.4;;;1.4;;
76548;SDS011;65391;52.068;4.542;2022-12-29T04:07:54;11.4;;;1.4;;
76548;SDS011;65391;52.068;4.542;2022-12-29T04:10:19;11.4;;;1.4;;
76548;SDS011;65391;52.068;4.542;2022-12-29T04:12:44;11.7;;;1.9;;
76548;SDS011;65391;52.068;4.542;2022-12-29T04:15:09;11.7;;;1.9;;
76548;SDS011;65391;52.068;4.542;2022-12-29T04:17:34;11.7;;;1.9;;
76548;SDS011;65391;52.068;4.542;2022-12-29T04:19:59;11.7;;;1.9;;
76548;SDS011;65391;52.068;4.542;2022-12-29T04:22:24;12.7;;;2.3;;
76548;SDS011;65391;52.068;4.542;2022-12-29T04:24:49;12.7;;;2.3;;
76548;SDS011;65391;52.068;4.542;2022-12-29T04:27:14;12.7;;;2.3;;
76548;SDS011;65391;52.068;4.542;2022-12-29T04:29:39;12.7;;;2.3;;
76548;SDS011;65391;52.068;4.542;2022-12-29T04:32:04;11;;;1.5;;
76548;SDS011;65391;52.068;4.542;2022-12-29T04:34:29;11;;;1.5;;
76548;SDS011;65391;52.068;4.542;2022-12-29T04:36:54;11;;;1.5;;
76548;SDS011;65391;52.068;4.542;2022-12-29T04:39:19;11;;;1.5;;
76548;SDS011;65391;52.068;4.542;2022-12-29T04:41:44;11;;;1.5;;
76548;SDS011;65391;52.068;4.542;2022-12-29T04:44:09;10.8;;;1.9;;
76548;SDS011;65391;52.068;4.542;2022-12-29T04:46:34;10.8;;;1.9;;
76548;SDS011;65391;52.068;4.542;2022-12-29T04:48:59;10.8;;;1.9;;
76548;SDS011;65391;52.068;4.542;2022-12-29T04:51:24;10.8;;;1.9;;
76548;SDS011;65391;52.068;4.542;2022-12-29T04:53:49;8.8;;;1.1;;
76548;SDS011;65391;52.068;4.542;2022-12-29T04:56:14;8.8;;;1.1;;
76548;SDS011;65391;52.068;4.542;2022-12-29T04:58:39;8.8;;;1.1;;
76548;SDS011;65391;52.068;4.542;2022-12-29T05:01:04;8.8;;;1.1;;
76548;SDS011;65391;52.068;4.542;2022-12-29T05:03:29;7.1;;;1.2;;
76548;SDS011;65391;52.068;4.542;2022-12-29T05:05:54;7.1;;;1.2;;
76548;SDS011;65391;52.068;4.542;2022-12-29T05:08:19;7.1;;;1.2;;
76548;SDS011;65391;52.068;4.542;2022-12-29T05:10:44;7.1;;;1.2;;
76548;SDS011;65391;52.068;4.542;2022-12-29T05:13:09;11.3;;;1.6;;
76548;SDS011;65391;52.068;4.542;2022-12-29T05:15:34;11.3;;;1.6;;
76548;SDS011;65391;52.068;4.542;2022-12-29T05:17:59;11.3;;;1.6;;
76548;SDS011;65391;52.068;4.542;2022-12-29T05:20:24;11.3;;;1.6;;
76548;SDS011;65391;52.068;4.542;2022-12-29T05:22:49;10.5;;;1.5;;
76548;SDS011;65391;52.068;4.542;2022-12-29T05:25:14;10.5;;;1.5;;
76548;SDS011;65391;52.068;4.542;2022-12-29T05:27:39;10.5;;;1.5;;
76548;SDS011;65391;52.068;4.542;2022-12-29T05:30:05;10.5;;;1.5;;
76548;SDS011;65391;52.068;4.542;2022-12-29T05:32:29;9.8;;;1.7;;
76548;SDS011;65391;52.068;4.542;2022-12-29T05:34:54;9.8;;;1.7;;
76548;SDS011;65391;52.068;4.542;2022-12-29T05:37:19;9.8;;;1.7;;
76548;SDS011;65391;52.068;4.542;2022-12-29T05:39:44;9.8;;;1.7;;
76548;SDS011;65391;52.068;4.542;2022-12-29T05:42:09;11.8;;;2;;
76548;SDS011;65391;52.068;4.542;2022-12-29T05:44:34;11.8;;;2;;
76548;SDS011;65391;52.068;4.542;2022-12-29T05:46:59;11.8;;;2;;
76548;SDS011;65391;52.068;4.542;2022-12-29T05:49:24;11.8;;;2;;
76548;SDS011;65391;52.068;4.542;2022-12-29T05:51:49;11.8;;;2;;
76548;SDS011;65391;52.068;4.542;2022-12-29T05:54:14;12.7;;;2.2;;
76548;SDS011;65391;52.068;4.542;2022-12-29T05:56:39;12.7;;;2.2;;
76548;SDS011;65391;52.068;4.542;2022-12-29T05:59:04;12.7;;;2.2;;
76548;SDS011;65391;52.068;4.542;2022-12-29T06:01:29;12.7;;;2.2;;
76548;SDS011;65391;52.068;4.542;2022-12-29T06:03:54;12;;;2.2;;
76548;SDS011;65391;52.068;4.542;2022-12-29T06:06:19;12;;;2.2;;
76548;SDS011;65391;52.068;4.542;2022-12-29T06:08:44;12;;;2.2;;
76548;SDS011;65391;52.068;4.542;2022-12-29T06:11:09;12;;;2.2;;
76548;SDS011;65391;52.068;4.542;2022-12-29T06:13:34;11.6;;;2.1;;
76548;SDS011;65391;52.068;4.542;2022-12-29T06:15:59;11.6;;;2.1;;
76548;SDS011;65391;52.068;4.542;2022-12-29T06:18:24;11.6;;;2.1;;
76548;SDS011;65391;52.068;4.542;2022-12-29T06:20:49;11.6;;;2.1;;
76548;SDS011;65391;52.068;4.542;2022-12-29T06:23:14;11;;;2.4;;
76548;SDS011;65391;52.068;4.542;2022-12-29T06:25:39;11;;;2.4;;
76548;SDS011;65391;52.068;4.542;2022-12-29T06:28:04;11;;;2.4;;
76548;SDS011;65391;52.068;4.542;2022-12-29T06:30:29;11;;;2.4;;
76548;SDS011;65391;52.068;4.542;2022-12-29T06:32:54;12.2;;;1.8;;
76548;SDS011;65391;52.068;4.542;2022-12-29T06:35:20;12.2;;;1.8;;
76548;SDS011;65391;52.068;4.542;2022-12-29T06:37:44;12.2;;;1.8;;
76548;SDS011;65391;52.068;4.542;2022-12-29T06:40:10;12.2;;;1.8;;
76548;SDS011;65391;52.068;4.542;2022-12-29T06:42:34;13.7;;;2.2;;
76548;SDS011;65391;52.068;4.542;2022-12-29T06:44:59;13.7;;;2.2;;
76548;SDS011;65391;52.068;4.542;2022-12-29T06:47:24;13.7;;;2.2;;
76548;SDS011;65391;52.068;4.542;2022-12-29T06:49:49;13.7;;;2.2;;
76548;SDS011;65391;52.068;4.542;2022-12-29T06:52:14;14.8;;;2.6;;
76548;SDS011;65391;52.068;4.542;2022-12-29T06:54:39;14.8;;;2.6;;
76548;SDS011;65391;52.068;4.542;2022-12-29T06:57:04;14.8;;;2.6;;
76548;SDS011;65391;52.068;4.542;2022-12-29T06:59:29;14.8;;;2.6;;
76548;SDS011;65391;52.068;4.542;2022-12-29T07:01:54;14.8;;;2.6;;
76548;SDS011;65391;52.068;4.542;2022-12-29T07:04:19;14.7;;;3.9;;
76548;SDS011;65391;52.068;4.542;2022-12-29T07:06:44;14.7;;;3.9;;
76548;SDS011;65391;52.068;4.542;2022-12-29T07:09:10;14.7;;;3.9;;
76548;SDS011;65391;52.068;4.542;2022-12-29T07:11:34;14.7;;;3.9;;
76548;SDS011;65391;52.068;4.542;2022-12-29T07:13:59;7.9;;;1.5;;
76548;SDS011;65391;52.068;4.542;2022-12-29T07:16:24;7.9;;;1.5;;
76548;SDS011;65391;52.068;4.542;2022-12-29T07:18:49;7.9;;;1.5;;
76548;SDS011;65391;52.068;4.542;2022-12-29T07:21:14;7.9;;;1.5;;
76548;SDS011;65391;52.068;4.542;2022-12-29T07:23:39;13;;;1.8;;
76548;SDS011;65391;52.068;4.542;2022-12-29T07:26:05;13;;;1.8;;
76548;SDS011;65391;52.068;4.542;2022-12-29T07:28:29;13;;;1.8;;
76548;SDS011;65391;52.068;4.542;2022-12-29T07:30:54;13;;;1.8;;
76548;SDS011;65391;52.068;4.542;2022-12-29T07:33:19;10.9;;;2.6;;
76548;SDS011;65391;52.068;4.542;2022-12-29T07:35:44;10.9;;;2.6;;
76548;SDS011;65391;52.068;4.542;2022-12-29T07:38:09;10.9;;;2.6;;
76548;SDS011;65391;52.068;4.542;2022-12-29T07:40:34;10.9;;;2.6;;
76548;SDS011;65391;52.068;4.542;2022-12-29T07:42:59;12.5;;;2.2;;
76548;SDS011;65391;52.068;4.542;2022-12-29T07:45:24;12.5;;;2.2;;
76548;SDS011;65391;52.068;4.542;2022-12-29T07:47:49;12.5;;;2.2;;
76548;SDS011;65391;52.068;4.542;2022-12-29T07:50:14;12.5;;;2.2;;
76548;SDS011;65391;52.068;4.542;2022-12-29T07:52:39;12;;;2.8;;
76548;SDS011;65391;52.068;4.542;2022-12-29T07:55:05;12;;;2.8;;
76548;SDS011;65391;52.068;4.542;2022-12-29T07:57:29;12;;;2.8;;
76548;SDS011;65391;52.068;4.542;2022-12-29T07:59:54;12;;;2.8;;
76548;SDS011;65391;52.068;4.542;2022-12-29T08:02:19;13.4;;;2.7;;
76548;SDS011;65391;52.068;4.542;2022-12-29T08:04:44;13.4;;;2.7;;
76548;SDS011;65391;52.068;4.542;2022-12-29T08:07:09;13.4;;;2.7;;
76548;SDS011;65391;52.068;4.542;2022-12-29T08:09:34;13.4;;;2.7;;
76548;SDS011;65391;52.068;4.542;2022-12-29T08:11:59;13.4;;;2.7;;
76548;SDS011;65391;52.068;4.542;2022-12-29T08:14:24;15.3;;;2.5;;
76548;SDS011;65391;52.068;4.542;2022-12-29T08:16:49;15.3;;;2.5;;
76548;SDS011;65391;52.068;4.542;2022-12-29T08:19:14;15.3;;;2.5;;
76548;SDS011;65391;52.068;4.542;2022-12-29T08:21:40;15.3;;;2.5;;
76548;SDS011;65391;52.068;4.542;2022-12-29T08:24:05;12.3;;;2.2;;
76548;SDS011;65391;52.068;4.542;2022-12-29T08:26:29;12.3;;;2.2;;
76548;SDS011;65391;52.068;4.542;2022-12-29T08:28:54;12.3;;;2.2;;
76548;SDS011;65391;52.068;4.542;2022-12-29T08:31:19;12.3;;;2.2;;
76548;SDS011;65391;52.068;4.542;2022-12-29T08:33:44;14.5;;;3.1;;
76548;SDS011;65391;52.068;4.542;2022-12-29T08:36:09;14.5;;;3.1;;
76548;SDS011;65391;52.068;4.542;2022-12-29T08:38:34;14.5;;;3.1;;
76548;SDS011;65391;52.068;4.542;2022-12-29T08:41:00;14.5;;;3.1;;
76548;SDS011;65391;52.068;4.542;2022-12-29T08:43:25;11.9;;;1.9;;
76548;SDS011;65391;52.068;4.542;2022-12-29T08:45:49;11.9;;;1.9;;
76548;SDS011;65391;52.068;4.542;2022-12-29T08:48:14;11.9;;;1.9;;
76548;SDS011;65391;52.068;4.542;2022-12-29T08:50:39;11.9;;;1.9;;
76548;SDS011;65391;52.068;4.542;2022-12-29T08:53:04;9.4;;;1.1;;
76548;SDS011;65391;52.068;4.542;2022-12-29T08:55:30;9.4;;;1.1;;
76548;SDS011;65391;52.068;4.542;2022-12-29T08:57:54;9.4;;;1.1;;
76548;SDS011;65391;52.068;4.542;2022-12-29T09:00:20;9.4;;;1.1;;
76548;SDS011;65391;52.068;4.542;2022-12-29T09:02:44;13.1;;;3.1;;
76548;SDS011;65391;52.068;4.542;2022-12-29T09:05:10;13.1;;;3.1;;
76548;SDS011;65391;52.068;4.542;2022-12-29T09:07:35;13.1;;;3.1;;
76548;SDS011;65391;52.068;4.542;2022-12-29T09:10:00;13.1;;;3.1;;
76548;SDS011;65391;52.068;4.542;2022-12-29T09:12:25;7.6;;;1.4;;
76548;SDS011;65391;52.068;4.542;2022-12-29T09:14:50;7.6;;;1.4;;
76548;SDS011;65391;52.068;4.542;2022-12-29T09:17:15;7.6;;;1.4;;
76548;SDS011;65391;52.068;4.542;2022-12-29T09:19:40;7.6;;;1.4;;
76548;SDS011;65391;52.068;4.542;2022-12-29T09:22:05;7.6;;;1.4;;
76548;SDS011;65391;52.068;4.542;2022-12-29T09:24:30;10;;;2.1;;
76548;SDS011;65391;52.068;4.542;2022-12-29T09:26:55;10;;;2.1;;
76548;SDS011;65391;52.068;4.542;2022-12-29T09:29:20;10;;;2.1;;
76548;SDS011;65391;52.068;4.542;2022-12-29T09:31:45;10;;;2.1;;
76548;SDS011;65391;52.068;4.542;2022-12-29T09:34:10;10.7;;;1.7;;
76548;SDS011;65391;52.068;4.542;2022-12-29T09:36:35;10.7;;;1.7;;
76548;SDS011;65391;52.068;4.542;2022-12-29T09:39:00;10.7;;;1.7;;
76548;SDS011;65391;52.068;4.542;2022-12-29T09:41:26;10.7;;;1.7;;
76548;SDS011;65391;52.068;4.542;2022-12-29T09:43:57;13.4;;;2.8;;
76548;SDS011;65391;52.068;4.542;2022-12-29T09:46:18;13.4;;;2.8;;
76548;SDS011;65391;52.068;4.542;2022-12-29T09:48:41;13.4;;;2.8;;
76548;SDS011;65391;52.068;4.542;2022-12-29T09:51:08;13.4;;;2.8;;
76548;SDS011;65391;52.068;4.542;2022-12-29T09:53:31;12.1;;;2.8;;
76548;SDS011;65391;52.068;4.542;2022-12-29T09:55:56;12.1;;;2.8;;
76548;SDS011;65391;52.068;4.542;2022-12-29T09:58:21;12.1;;;2.8;;
76548;SDS011;65391;52.068;4.542;2022-12-29T10:00:48;12.1;;;2.8;;
76548;SDS011;65391;52.068;4.542;2022-12-29T10:03:13;12;;;2;;
76548;SDS011;65391;52.068;4.542;2022-12-29T10:05:37;12;;;2;;
76548;SDS011;65391;52.068;4.542;2022-12-29T10:08:07;12;;;2;;
76548;SDS011;65391;52.068;4.542;2022-12-29T10:10:30;12;;;2;;
76548;SDS011;65391;52.068;4.542;2022-12-29T10:12:56;12.2;;;2.4;;
76548;SDS011;65391;52.068;4.542;2022-12-29T10:15:20;12.2;;;2.4;;
76548;SDS011;65391;52.068;4.542;2022-12-29T10:17:42;12.2;;;2.4;;
76548;SDS011;65391;52.068;4.542;2022-12-29T10:20:15;12.2;;;2.4;;
76548;SDS011;65391;52.068;4.542;2022-12-29T10:22:37;11.8;;;2.6;;
76548;SDS011;65391;52.068;4.542;2022-12-29T10:24:55;11.8;;;2.6;;
76548;SDS011;65391;52.068;4.542;2022-12-29T10:27:20;11.8;;;2.6;;
76548;SDS011;65391;52.068;4.542;2022-12-29T10:29:48;11.8;;;2.6;;
76548;SDS011;65391;52.068;4.542;2022-12-29T10:32:16;11.8;;;2.6;;
76548;SDS011;65391;52.068;4.542;2022-12-29T10:34:36;14.2;;;2.6;;
76548;SDS011;65391;52.068;4.542;2022-12-29T10:37:02;14.2;;;2.6;;
76548;SDS011;65391;52.068;4.542;2022-12-29T10:39:28;14.2;;;2.6;;
76548;SDS011;65391;52.068;4.542;2022-12-29T10:41:51;14.2;;;2.6;;
76548;SDS011;65391;52.068;4.542;2022-12-29T10:44:16;15.1;;;2.9;;
76548;SDS011;65391;52.068;4.542;2022-12-29T10:46:40;15.1;;;2.9;;
76548;SDS011;65391;52.068;4.542;2022-12-29T10:49:05;15.1;;;2.9;;
76548;SDS011;65391;52.068;4.542;2022-12-29T10:51:32;15.1;;;2.9;;
76548;SDS011;65391;52.068;4.542;2022-12-29T10:53:57;13.6;;;2.8;;
76548;SDS011;65391;52.068;4.542;2022-12-29T10:56:27;13.6;;;2.8;;
76548;SDS011;65391;52.068;4.542;2022-12-29T10:58:45;13.6;;;2.8;;
76548;SDS011;65391;52.068;4.542;2022-12-29T11:01:10;13.6;;;2.8;;
76548;SDS011;65391;52.068;4.542;2022-12-29T11:03:41;14.1;;;2.6;;
76548;SDS011;65391;52.068;4.542;2022-12-29T11:06:01;14.1;;;2.6;;
76548;SDS011;65391;52.068;4.542;2022-12-29T11:08:26;14.1;;;2.6;;
76548;SDS011;65391;52.068;4.542;2022-12-29T11:10:58;14.1;;;2.6;;
76548;SDS011;65391;52.068;4.542;2022-12-29T11:13:16;16.2;;;2.8;;
76548;SDS011;65391;52.068;4.542;2022-12-29T11:15:41;16.2;;;2.8;;
76548;SDS011;65391;52.068;4.542;2022-12-29T11:18:17;16.2;;;2.8;;
76548;SDS011;65391;52.068;4.542;2022-12-29T11:20:32;16.2;;;2.8;;
76548;SDS011;65391;52.068;4.542;2022-12-29T11:22:55;10.3;;;2.3;;
76548;SDS011;65391;52.068;4.542;2022-12-29T11:25:20;10.3;;;2.3;;
76548;SDS011;65391;52.068;4.542;2022-12-29T11:27:54;10.3;;;2.3;;
76548;SDS011;65391;52.068;4.542;2022-12-29T11:30:22;10.3;;;2.3;;
76548;SDS011;65391;52.068;4.542;2022-12-29T11:32:35;14.1;;;2.7;;
76548;SDS011;65391;52.068;4.542;2022-12-29T11:35:00;14.1;;;2.7;;
76548;SDS011;65391;52.068;4.542;2022-12-29T11:37:28;14.1;;;2.7;;
76548;SDS011;65391;52.068;4.542;2022-12-29T11:39:51;14.1;;;2.7;;
76548;SDS011;65391;52.068;4.542;2022-12-29T11:42:16;14.1;;;2.7;;
76548;SDS011;65391;52.068;4.542;2022-12-29T11:44:43;13.8;;;2.4;;
76548;SDS011;65391;52.068;4.542;2022-12-29T11:47:05;13.8;;;2.4;;
76548;SDS011;65391;52.068;4.542;2022-12-29T11:49:30;13.8;;;2.4;;
76548;SDS011;65391;52.068;4.542;2022-12-29T11:51:55;13.8;;;2.4;;
76548;SDS011;65391;52.068;4.542;2022-12-29T11:54:22;15.3;;;2.3;;
76548;SDS011;65391;52.068;4.542;2022-12-29T11:56:45;15.3;;;2.3;;
76548;SDS011;65391;52.068;4.542;2022-12-29T11:59:42;15.3;;;2.3;;
76548;SDS011;65391;52.068;4.542;2022-12-29T12:01:36;15.3;;;2.3;;
76548;SDS011;65391;52.068;4.542;2022-12-29T12:04:01;11.4;;;2.2;;
76548;SDS011;65391;52.068;4.542;2022-12-29T12:06:25;11.4;;;2.2;;
76548;SDS011;65391;52.068;4.542;2022-12-29T12:08:53;11.4;;;2.2;;
76548;SDS011;65391;52.068;4.542;2022-12-29T12:11:17;11.4;;;2.2;;
76548;SDS011;65391;52.068;4.542;2022-12-29T12:13:43;13;;;2;;
76548;SDS011;65391;52.068;4.542;2022-12-29T12:16:06;13;;;2;;
76548;SDS011;65391;52.068;4.542;2022-12-29T12:18:33;13;;;2;;
76548;SDS011;65391;52.068;4.542;2022-12-29T12:20:57;13;;;2;;
76548;SDS011;65391;52.068;4.542;2022-12-29T12:23:27;12.9;;;2.2;;
76548;SDS011;65391;52.068;4.542;2022-12-29T12:25:50;12.9;;;2.2;;
76548;SDS011;65391;52.068;4.542;2022-12-29T12:28:11;12.9;;;2.2;;
76548;SDS011;65391;52.068;4.542;2022-12-29T12:30:37;12.9;;;2.2;;
76548;SDS011;65391;52.068;4.542;2022-12-29T12:33:03;14.2;;;2.3;;
76548;SDS011;65391;52.068;4.542;2022-12-29T12:35:28;14.2;;;2.3;;
76548;SDS011;65391;52.068;4.542;2022-12-29T12:38:07;14.2;;;2.3;;
76548;SDS011;65391;52.068;4.542;2022-12-29T12:40:25;14.2;;;2.3;;
76548;SDS011;65391;52.068;4.542;2022-12-29T12:42:49;11;;;1.3;;
76548;SDS011;65391;52.068;4.542;2022-12-29T12:45:30;11;;;1.3;;
76548;SDS011;65391;52.068;4.542;2022-12-29T12:47:39;11;;;1.3;;
76548;SDS011;65391;52.068;4.542;2022-12-29T12:52:25;11;;;1.3;;
76548;SDS011;65391;52.068;4.542;2022-12-29T12:54:54;9.3;;;1.5;;
76548;SDS011;65391;52.068;4.542;2022-12-29T12:57:13;9.3;;;1.5;;
76548;SDS011;65391;52.068;4.542;2022-12-29T12:59:41;9.3;;;1.5;;
76548;SDS011;65391;52.068;4.542;2022-12-29T13:02:01;9.3;;;1.5;;
76548;SDS011;65391;52.068;4.542;2022-12-29T13:04:37;12.6;;;2.1;;
76548;SDS011;65391;52.068;4.542;2022-12-29T13:06:52;12.6;;;2.1;;
76548;SDS011;65391;52.068;4.542;2022-12-29T13:09:25;12.6;;;2.1;;
76548;SDS011;65391;52.068;4.542;2022-12-29T13:11:49;12.6;;;2.1;;
76548;SDS011;65391;52.068;4.542;2022-12-29T13:14:13;15.4;;;2.9;;
76548;SDS011;65391;52.068;4.542;2022-12-29T13:16:33;15.4;;;2.9;;
76548;SDS011;65391;52.068;4.542;2022-12-29T13:18:58;15.4;;;2.9;;
76548;SDS011;65391;52.068;4.542;2022-12-29T13:21:27;15.4;;;2.9;;
76548;SDS011;65391;52.068;4.542;2022-12-29T13:23:47;14.6;;;2.3;;
76548;SDS011;65391;52.068;4.542;2022-12-29T13:26:12;14.6;;;2.3;;
76548;SDS011;65391;52.068;4.542;2022-12-29T13:28:38;14.6;;;2.3;;
76548;SDS011;65391;52.068;4.542;2022-12-29T13:31:02;14.6;;;2.3;;
76548;SDS011;65391;52.068;4.542;2022-12-29T13:33:29;13.7;;;2.8;;
76548;SDS011;65391;52.068;4.542;2022-12-29T13:35:55;13.7;;;2.8;;
76548;SDS011;65391;52.068;4.542;2022-12-29T13:38:17;13.7;;;2.8;;
76548;SDS011;65391;52.068;4.542;2022-12-29T13:40:43;13.7;;;2.8;;
76548;SDS011;65391;52.068;4.542;2022-12-29T13:43:05;11.5;;;1.4;;
76548;SDS011;65391;52.068;4.542;2022-12-29T13:45:31;11.5;;;1.4;;
76548;SDS011;65391;52.068;4.542;2022-12-29T13:47:59;11.5;;;1.4;;
76548;SDS011;65391;52.068;4.542;2022-12-29T13:50:22;11.5;;;1.4;;
76548;SDS011;65391;52.068;4.542;2022-12-29T13:52:53;10.6;;;2.2;;
76548;SDS011;65391;52.068;4.542;2022-12-29T13:55:20;10.6;;;2.2;;
76548;SDS011;65391;52.068;4.542;2022-12-29T13:57:39;10.6;;;2.2;;
76548;SDS011;65391;52.068;4.542;2022-12-29T14:00:02;10.6;;;2.2;;
76548;SDS011;65391;52.068;4.542;2022-12-29T14:02:27;10.6;;;2.2;;
76548;SDS011;65391;52.068;4.542;2022-12-29T14:04:59;8.1;;;2.1;;
76548;SDS011;65391;52.068;4.542;2022-12-29T14:07:16;8.1;;;2.1;;
76548;SDS011;65391;52.068;4.542;2022-12-29T14:09:45;8.1;;;2.1;;
76548;SDS011;65391;52.068;4.542;2022-12-29T14:12:19;8.1;;;2.1;;
76548;SDS011;65391;52.068;4.542;2022-12-29T14:14:30;9.4;;;2.2;;
76548;SDS011;65391;52.068;4.542;2022-12-29T14:16:58;9.4;;;2.2;;
76548;SDS011;65391;52.068;4.542;2022-12-29T14:19:22;9.4;;;2.2;;
76548;SDS011;65391;52.068;4.542;2022-12-29T14:21:54;9.4;;;2.2;;
76548;SDS011;65391;52.068;4.542;2022-12-29T14:24:38;11.9;;;3.5;;
76548;SDS011;65391;52.068;4.542;2022-12-29T14:26:35;11.9;;;3.5;;
76548;SDS011;65391;52.068;4.542;2022-12-29T14:29:16;11.9;;;3.5;;
76548;SDS011;65391;52.068;4.542;2022-12-29T14:31:33;11.9;;;3.5;;
76548;SDS011;65391;52.068;4.542;2022-12-29T14:34:15;10;;;1.4;;
76548;SDS011;65391;52.068;4.542;2022-12-29T14:36:18;10;;;1.4;;
76548;SDS011;65391;52.068;4.542;2022-12-29T14:38:44;10;;;1.4;;
76548;SDS011;65391;52.068;4.542;2022-12-29T14:41:37;10;;;1.4;;
76548;SDS011;65391;52.068;4.542;2022-12-29T14:43:30;10;;;2.6;;
76548;SDS011;65391;52.068;4.542;2022-12-29T14:45:58;10;;;2.6;;
76548;SDS011;65391;52.068;4.542;2022-12-29T14:48:27;10;;;2.6;;
76548;SDS011;65391;52.068;4.542;2022-12-29T14:50:45;10;;;2.6;;
76548;SDS011;65391;52.068;4.542;2022-12-29T14:53:41;12.3;;;3.3;;
76548;SDS011;65391;52.068;4.542;2022-12-29T14:55:37;12.3;;;3.3;;
76548;SDS011;65391;52.068;4.542;2022-12-29T14:58:01;12.3;;;3.3;;
76548;SDS011;65391;52.068;4.542;2022-12-29T15:00:27;12.3;;;3.3;;